Arrowsmith, Illinois
Current Conditions -  °F | °C
As of 9:56 PM on Sunday 25 Jan 2015 (Local Time) from KBMI Reporting Station
Overcast Overcast  
Wind Chill: 15°   Ceiling: 1700
Heat Index: 27°   Visibility: 10mi
Dew Point: 23°   Wind: 15mph
Humidity: 84%   Direction: 10°N
Pressure: 29.97"   Gusts: NA
Location:  40.45°N, 88.63°W
Report Text: KBMI 260356Z 01013KT 10SM BKN017 OVC055 M03/M05 A2997 RMK AO2 T10271050 BKN V OVC SLP165
Loading
Personal Weather Stations






























Interactive Weather Map New forecast layout! Learn more

10-Day Weather Forecast

Advertisements
Track Severe Weather on mobile